Time;durP1;ratioP1;P1;durP2;ratioP2;P2;SDS_P1;SDS_P2;PMS_P1;PMS_P2;Temp;Humidity;BMP_temperature;BMP_pressure;BME280_temperature;BME280_humidity;BME280_pressure;Samples;Min_cycle;Max_cycle;Signal;HPM_P1;HPM_P2
2023/11/04 00:01:36;;;;;;;;;6.00;5.33;;;;;;;;5100479;27;46549;-75
2023/11/04 00:04:01;;;;;;;;;6.00;6.00;;;;;;;;5100205;27;45346;-75
2023/11/04 00:06:27;;;;;;;;;6.00;6.00;;;;;;;;5100446;27;45448;-74
2023/11/04 00:08:52;;;;;;;;;6.33;6.33;;;;;;;;5100159;27;45522;-75
2023/11/04 00:11:18;;;;;;;;;7.67;7.67;;;;;;;;5100492;27;46203;-75
2023/11/04 00:13:43;;;;;;;;;8.00;6.00;;;;;;;;5100582;27;45366;-74
2023/11/04 00:16:09;;;;;;;;;5.00;5.00;;;;;;;;5100436;27;45306;-75
2023/11/04 00:18:35;;;;;;;;;6.00;5.67;;;;;;;;5100184;27;45296;-75
2023/11/04 00:21:00;;;;;;;;;5.00;5.00;;;;;;;;5100460;27;46219;-75
2023/11/04 00:23:26;;;;;;;;;6.67;6.67;;;;;;;;5104703;27;45283;-74
2023/11/04 00:25:51;;;;;;;;;8.00;6.00;;;;;;;;5104231;27;45452;-74
2023/11/04 00:28:19;;;;;;;;;8.00;8.00;;;;;;;;5104072;27;45321;-75
2023/11/04 00:30:44;;;;;;;;;9.33;6.00;;;;;;;;5063080;28;46329;-75
2023/11/04 00:33:09;;;;;;;;;7.00;7.00;;;;;;;;5063041;28;45335;-74
2023/11/04 00:35:35;;;;;;;;;8.33;7.67;;;;;;;;5063372;28;45660;-76
2023/11/04 00:38:00;;;;;;;;;7.33;5.67;;;;;;;;5063145;28;45274;-75
2023/11/04 00:40:25;;;;;;;;;7.00;7.00;;;;;;;;5063534;28;45208;-75
2023/11/04 00:42:53;;;;;;;;;8.33;7.67;;;;;;;;5063707;28;45354;-75
2023/11/04 00:45:18;;;;;;;;;8.00;7.33;;;;;;;;5063673;28;45461;-75
2023/11/04 00:47:43;;;;;;;;;9.00;5.00;;;;;;;;5062493;28;45339;-75
2023/11/04 00:50:08;;;;;;;;;5.33;5.33;;;;;;;;5062886;28;46295;-75
2023/11/04 00:52:34;;;;;;;;;7.33;4.67;;;;;;;;5062492;28;45300;-75
2023/11/04 00:54:59;;;;;;;;;6.33;5.00;;;;;;;;5062966;28;45288;-75
2023/11/04 00:57:24;;;;;;;;;6.00;6.00;;;;;;;;5062689;28;45278;-76
2023/11/04 00:59:49;;;;;;;;;6.00;4.00;;;;;;;;5062819;28;45932;-75
2023/11/04 01:02:15;;;;;;;;;3.00;3.00;;;;;;;;5062537;28;45346;-75
2023/11/04 01:04:40;;;;;;;;;7.00;5.00;;;;;;;;5063637;28;45544;-75
2023/11/04 01:07:05;;;;;;;;;8.67;7.00;;;;;;;;5062976;28;45389;-75
2023/11/04 01:09:30;;;;;;;;;5.00;5.00;;;;;;;;5062643;28;45327;-75
2023/11/04 01:11:55;;;;;;;;;6.00;5.00;;;;;;;;5062611;28;45313;-75
2023/11/04 01:14:20;;;;;;;;;6.33;4.00;;;;;;;;5062735;28;45496;-75
2023/11/04 01:16:46;;;;;;;;;5.33;5.33;;;;;;;;5063429;28;45296;-75
2023/11/04 01:19:11;;;;;;;;;6.67;5.00;;;;;;;;5061270;28;46407;-75
2023/11/04 01:21:36;;;;;;;;;2.67;2.33;;;;;;;;5062494;28;45274;-75
2023/11/04 01:24:01;;;;;;;;;4.33;4.33;;;;;;;;5063565;28;45350;-75
2023/11/04 01:26:27;;;;;;;;;7.00;4.00;;;;;;;;5061988;28;45266;-75
2023/11/04 01:28:52;;;;;;;;;5.00;4.33;;;;;;;;5071805;27;45286;-75
2023/11/04 01:31:17;;;;;;;;;3.00;3.00;;;;;;;;5104338;27;45244;-75
2023/11/04 01:33:43;;;;;;;;;7.00;6.67;;;;;;;;5100314;27;45188;-75
2023/11/04 01:36:09;;;;;;;;;3.00;3.00;;;;;;;;5102767;27;45294;-75
2023/11/04 01:38:34;;;;;;;;;4.33;4.00;;;;;;;;5102790;27;45413;-74
2023/11/04 01:41:00;;;;;;;;;5.00;4.00;;;;;;;;5103003;27;45262;-75
2023/11/04 01:43:25;;;;;;;;;6.67;6.67;;;;;;;;5103604;27;45465;-75
2023/11/04 01:46:15;;;;;;;;;4.00;4.00;;;;;;;;5103142;27;45325;-75
2023/11/04 01:48:40;;;;;;;;;4.50;4.50;;;;;;;;5094378;27;45455;-75
2023/11/04 01:51:07;;;;;;;;;6.00;6.00;;;;;;;;5102560;27;45259;-75
2023/11/04 01:53:33;;;;;;;;;3.00;3.00;;;;;;;;5103566;27;45162;-75
2023/11/04 01:55:59;;;;;;;;;6.00;6.00;;;;;;;;5102564;27;45163;-75
2023/11/04 01:58:24;;;;;;;;;5.33;5.00;;;;;;;;5102228;27;46191;-74
2023/11/04 02:00:49;;;;;;;;;6.00;4.67;;;;;;;;5102688;27;45236;-75
2023/11/04 02:03:16;;;;;;;;;4.33;3.00;;;;;;;;5102281;27;45397;-75
2023/11/04 02:05:42;;;;;;;;;2.00;2.00;;;;;;;;5102532;27;45330;-75
2023/11/04 02:08:08;;;;;;;;;3.67;3.67;;;;;;;;5101626;27;45574;-75
2023/11/04 02:10:33;;;;;;;;;5.00;4.00;;;;;;;;5102353;27;45317;-75
2023/11/04 02:12:58;;;;;;;;;4.67;4.67;;;;;;;;5102497;27;45246;-75
2023/11/04 02:15:24;;;;;;;;;3.00;3.00;;;;;;;;5102178;27;45424;-75
2023/11/04 02:17:49;;;;;;;;;3.67;3.67;;;;;;;;5102723;27;45517;-75
2023/11/04 02:20:15;;;;;;;;;5.00;4.00;;;;;;;;5103024;27;45283;-75
2023/11/04 02:22:40;;;;;;;;;3.67;3.67;;;;;;;;5102299;27;45377;-75
2023/11/04 02:25:05;;;;;;;;;2.67;2.33;;;;;;;;5102093;27;45236;-75
2023/11/04 02:27:30;;;;;;;;;3.00;3.00;;;;;;;;5102045;27;45274;-75
2023/11/04 02:29:56;;;;;;;;;5.67;3.67;;;;;;;;5088007;27;45385;-75
2023/11/04 02:32:21;;;;;;;;;2.33;2.33;;;;;;;;5081534;28;45216;-75
2023/11/04 02:34:46;;;;;;;;;3.00;3.00;;;;;;;;5081531;28;45518;-75
2023/11/04 02:37:12;;;;;;;;;4.67;3.67;;;;;;;;5081748;28;45404;-75
2023/11/04 02:39:37;;;;;;;;;2.67;2.00;;;;;;;;5081515;28;45236;-75
2023/11/04 02:42:02;;;;;;;;;4.00;4.00;;;;;;;;5081700;28;45232;-75
2023/11/04 02:44:28;;;;;;;;;4.33;3.33;;;;;;;;5080881;28;45213;-76
2023/11/04 02:46:53;;;;;;;;;4.33;3.67;;;;;;;;5080836;28;46078;-75
2023/11/04 02:49:19;;;;;;;;;4.67;4.00;;;;;;;;5081727;28;45285;-75
2023/11/04 02:51:44;;;;;;;;;4.00;4.00;;;;;;;;5081059;28;45341;-75
2023/11/04 02:54:09;;;;;;;;;4.33;4.00;;;;;;;;5080977;28;45281;-75
2023/11/04 02:56:34;;;;;;;;;3.00;3.00;;;;;;;;5081231;28;45166;-74
2023/11/04 02:59:00;;;;;;;;;3.67;3.00;;;;;;;;5080895;28;45555;-75
2023/11/04 03:01:25;;;;;;;;;0.00;0.00;;;;;;;;5081020;28;45537;-75
2023/11/04 03:03:51;;;;;;;;;5.00;3.33;;;;;;;;5080782;28;45422;-75
2023/11/04 03:06:20;;;;;;;;;3.00;3.00;;;;;;;;5080527;28;45334;-75
2023/11/04 03:08:45;;;;;;;;;7.67;4.67;;;;;;;;5081009;28;45370;-75
2023/11/04 03:11:10;;;;;;;;;2.00;2.00;;;;;;;;5081057;28;45309;-74
2023/11/04 03:13:35;;;;;;;;;3.00;3.00;;;;;;;;5080814;28;45354;-75
2023/11/04 03:16:00;;;;;;;;;4.00;4.00;;;;;;;;5080571;28;45323;-74
2023/11/04 03:18:26;;;;;;;;;3.00;3.00;;;;;;;;5080946;28;45369;-75
2023/11/04 03:20:52;;;;;;;;;4.00;4.00;;;;;;;;5080832;28;45650;-75
2023/11/04 03:23:17;;;;;;;;;6.00;4.00;;;;;;;;5080669;28;45246;-75
2023/11/04 03:25:42;;;;;;;;;3.33;2.00;;;;;;;;5080391;28;45199;-74
2023/11/04 03:28:07;;;;;;;;;4.33;2.00;;;;;;;;5080382;28;45217;-74
2023/11/04 03:30:34;;;;;;;;;2.00;2.00;;;;;;;;5099148;27;45343;-75
2023/11/04 03:33:00;;;;;;;;;1.67;1.67;;;;;;;;5100809;27;45480;-75
2023/11/04 03:35:25;;;;;;;;;2.00;2.00;;;;;;;;5100701;27;45354;-75
2023/11/04 03:37:51;;;;;;;;;2.00;2.00;;;;;;;;5100949;27;45295;-75
2023/11/04 03:40:17;;;;;;;;;2.67;2.67;;;;;;;;5099652;27;45285;-75
2023/11/04 03:42:43;;;;;;;;;2.67;2.67;;;;;;;;5101226;27;45255;-75
2023/11/04 03:45:08;;;;;;;;;2.33;2.00;;;;;;;;5099544;27;47891;-75
2023/11/04 03:47:33;;;;;;;;;3.33;3.00;;;;;;;;5100230;27;45459;-75
2023/11/04 03:49:58;;;;;;;;;1.67;1.67;;;;;;;;5100825;27;45348;-75
2023/11/04 03:52:24;;;;;;;;;2.00;2.00;;;;;;;;5100480;27;45334;-75
2023/11/04 03:54:49;;;;;;;;;2.00;2.00;;;;;;;;5100583;27;46147;-74
2023/11/04 03:57:14;;;;;;;;;2.67;2.00;;;;;;;;5099830;27;45504;-75
2023/11/04 03:59:39;;;;;;;;;2.67;2.00;;;;;;;;5100677;27;45471;-75
2023/11/04 04:02:07;;;;;;;;;6.67;4.33;;;;;;;;5100113;27;45365;-75
2023/11/04 04:04:32;;;;;;;;;2.00;2.00;;;;;;;;5100334;27;46000;-75
2023/11/04 04:06:57;;;;;;;;;2.67;2.67;;;;;;;;5100373;27;45261;-75
2023/11/04 04:09:22;;;;;;;;;2.67;2.67;;;;;;;;5100724;27;45180;-75
2023/11/04 04:11:48;;;;;;;;;4.00;2.33;;;;;;;;5100310;27;45393;-75
2023/11/04 04:14:13;;;;;;;;;2.67;2.67;;;;;;;;5100503;27;45312;-74
2023/11/04 04:16:38;;;;;;;;;1.33;1.33;;;;;;;;5100437;27;45216;-75
2023/11/04 04:19:04;;;;;;;;;3.67;3.33;;;;;;;;5100182;27;45273;-75
2023/11/04 04:21:29;;;;;;;;;3.00;3.00;;;;;;;;5100283;27;45425;-75
2023/11/04 04:23:55;;;;;;;;;3.00;2.00;;;;;;;;5100150;27;45244;-75
2023/11/04 04:26:20;;;;;;;;;2.00;2.00;;;;;;;;5100630;27;45386;-75
2023/11/04 04:28:45;;;;;;;;;1.67;1.67;;;;;;;;5096326;27;45346;-75
2023/11/04 04:31:11;;;;;;;;;3.67;2.33;;;;;;;;5079784;28;45221;-75
2023/11/04 04:33:36;;;;;;;;;3.33;2.33;;;;;;;;5079529;28;45417;-75
2023/11/04 04:36:01;;;;;;;;;1.33;1.33;;;;;;;;5079675;28;45276;-75
2023/11/04 04:38:26;;;;;;;;;4.00;3.67;;;;;;;;5078287;28;45484;-75
2023/11/04 04:40:51;;;;;;;;;3.67;1.00;;;;;;;;5079583;28;45417;-75
2023/11/04 04:43:17;;;;;;;;;2.67;2.00;;;;;;;;5079505;28;46495;-75
2023/11/04 04:45:42;;;;;;;;;2.00;2.00;;;;;;;;5079607;28;45480;-75
2023/11/04 04:48:07;;;;;;;;;1.67;1.67;;;;;;;;5079058;28;45494;-75
2023/11/04 04:50:32;;;;;;;;;2.00;2.00;;;;;;;;5079415;28;45336;-74
2023/11/04 04:52:57;;;;;;;;;2.00;2.00;;;;;;;;5079358;28;46518;-75
2023/11/04 04:55:23;;;;;;;;;4.00;2.67;;;;;;;;5079394;28;45354;-75
2023/11/04 04:57:48;;;;;;;;;3.00;3.00;;;;;;;;5077998;28;45374;-75
2023/11/04 05:00:13;;;;;;;;;2.33;2.33;;;;;;;;5079350;28;45288;-74
2023/11/04 05:02:38;;;;;;;;;4.00;3.00;;;;;;;;5079023;28;46035;-74
2023/11/04 05:05:04;;;;;;;;;3.67;2.00;;;;;;;;5079002;28;45349;-74
2023/11/04 05:07:29;;;;;;;;;2.00;2.00;;;;;;;;5079683;28;45376;-74
2023/11/04 05:09:54;;;;;;;;;2.00;2.00;;;;;;;;5081955;28;45403;-75
2023/11/04 05:12:19;;;;;;;;;3.00;2.00;;;;;;;;5081985;28;45676;-74
2023/11/04 05:14:45;;;;;;;;;3.67;2.00;;;;;;;;5082862;28;45310;-75
2023/11/04 05:17:10;;;;;;;;;1.67;1.67;;;;;;;;5083027;28;45327;-74
2023/11/04 05:19:35;;;;;;;;;1.33;0.67;;;;;;;;5082657;28;45261;-74
2023/11/04 05:22:01;;;;;;;;;2.33;1.00;;;;;;;;5082540;28;46459;-75
2023/11/04 05:24:26;;;;;;;;;4.33;2.00;;;;;;;;5082578;28;45342;-75
2023/11/04 05:26:51;;;;;;;;;2.00;2.00;;;;;;;;5082707;28;45940;-75
2023/11/04 05:29:17;;;;;;;;;4.67;4.00;;;;;;;;5090646;27;45590;-75
2023/11/04 05:31:42;;;;;;;;;4.33;3.33;;;;;;;;5102849;27;45285;-75
2023/11/04 05:34:07;;;;;;;;;2.67;2.00;;;;;;;;5102855;27;45210;-74
2023/11/04 05:36:33;;;;;;;;;2.00;2.00;;;;;;;;5103257;27;45562;-75
2023/11/04 05:38:58;;;;;;;;;2.33;2.33;;;;;;;;5102861;27;45492;-75
2023/11/04 05:41:23;;;;;;;;;3.00;3.00;;;;;;;;5103436;27;46040;-75
2023/11/04 05:43:48;;;;;;;;;2.67;2.67;;;;;;;;5104847;27;45202;-75
2023/11/04 05:46:13;;;;;;;;;2.33;2.00;;;;;;;;5107139;27;45121;-75
2023/11/04 05:48:39;;;;;;;;;3.67;1.00;;;;;;;;5107307;27;45500;-76
2023/11/04 05:51:05;;;;;;;;;2.00;1.00;;;;;;;;5103787;27;46564;-76
2023/11/04 05:53:30;;;;;;;;;4.33;2.67;;;;;;;;5103278;27;45305;-75
2023/11/04 05:55:56;;;;;;;;;3.67;2.00;;;;;;;;5102795;27;45297;-76
2023/11/04 05:58:22;;;;;;;;;2.33;1.33;;;;;;;;5102862;27;45394;-77
2023/11/04 06:00:47;;;;;;;;;3.00;2.00;;;;;;;;5102077;27;45133;-76
2023/11/04 06:03:12;;;;;;;;;2.00;1.33;;;;;;;;5101986;27;45466;-75
2023/11/04 06:05:37;;;;;;;;;2.33;2.33;;;;;;;;5102411;27;45831;-75
2023/11/04 06:08:03;;;;;;;;;3.33;3.33;;;;;;;;5101872;27;45755;-75
2023/11/04 06:10:28;;;;;;;;;4.00;2.00;;;;;;;;5102225;27;46479;-75
2023/11/04 06:12:53;;;;;;;;;2.67;2.00;;;;;;;;5102296;27;45335;-75
2023/11/04 06:15:19;;;;;;;;;2.00;1.00;;;;;;;;5102294;27;45297;-76
2023/11/04 06:17:44;;;;;;;;;0.67;0.67;;;;;;;;5101979;27;45441;-75
2023/11/04 06:20:09;;;;;;;;;1.33;1.33;;;;;;;;5101246;27;45344;-76
2023/11/04 06:22:35;;;;;;;;;2.33;1.33;;;;;;;;5101892;27;45345;-75
2023/11/04 06:25:00;;;;;;;;;1.67;1.67;;;;;;;;5101996;27;45428;-75
2023/11/04 06:27:25;;;;;;;;;2.33;1.00;;;;;;;;5101899;27;45304;-74
2023/11/04 06:29:50;;;;;;;;;1.67;1.00;;;;;;;;5088573;27;45338;-74
2023/11/04 06:32:15;;;;;;;;;1.00;1.00;;;;;;;;5081043;28;45302;-75
2023/11/04 06:34:41;;;;;;;;;1.67;1.67;;;;;;;;5081343;27;45548;-74
2023/11/04 06:37:06;;;;;;;;;4.00;2.00;;;;;;;;5081003;28;45335;-74
2023/11/04 06:39:31;;;;;;;;;3.67;1.00;;;;;;;;5081239;27;45315;-74
2023/11/04 06:41:56;;;;;;;;;0.00;0.00;;;;;;;;5081303;27;45334;-75
2023/11/04 06:44:22;;;;;;;;;1.00;1.00;;;;;;;;5081485;28;45324;-74
2023/11/04 06:46:50;;;;;;;;;2.00;1.00;;;;;;;;5080390;27;45366;-74
2023/11/04 06:49:15;;;;;;;;;4.00;3.00;;;;;;;;5080824;27;46081;-75
2023/11/04 06:51:41;;;;;;;;;1.33;1.00;;;;;;;;5080932;27;45358;-75
2023/11/04 06:54:06;;;;;;;;;1.00;0.00;;;;;;;;5063153;28;45275;-77
2023/11/04 06:56:31;;;;;;;;;0.33;0.33;;;;;;;;5060653;28;45492;-75
2023/11/04 06:58:57;;;;;;;;;0.00;0.00;;;;;;;;5060894;28;46425;-76
2023/11/04 07:01:24;;;;;;;;;1.67;0.00;;;;;;;;5060661;28;45287;-77
2023/11/04 07:03:49;;;;;;;;;0.00;0.00;;;;;;;;5060533;28;45382;-75
2023/11/04 07:06:14;;;;;;;;;0.67;0.33;;;;;;;;5060224;28;45401;-75
2023/11/04 07:08:42;;;;;;;;;2.00;1.00;;;;;;;;5060677;28;45311;-76
2023/11/04 07:11:07;;;;;;;;;2.00;1.00;;;;;;;;5060499;28;45199;-76
2023/11/04 07:13:34;;;;;;;;;1.00;1.00;;;;;;;;5060621;28;45188;-78
2023/11/04 07:15:59;;;;;;;;;2.00;2.00;;;;;;;;5060310;28;45370;-76
2023/11/04 07:18:24;;;;;;;;;2.00;0.67;;;;;;;;5060109;28;45330;-74
2023/11/04 07:20:50;;;;;;;;;2.00;1.00;;;;;;;;5060252;28;45323;-74
2023/11/04 07:23:17;;;;;;;;;0.00;0.00;;;;;;;;5060388;28;45141;-74
2023/11/04 07:25:42;;;;;;;;;15.00;14.33;;;;;;;;5061853;28;45410;-81
2023/11/04 07:28:07;;;;;;;;;1.00;1.00;;;;;;;;5065246;28;45505;-81
2023/11/04 07:30:33;;;;;;;;;1.33;1.00;;;;;;;;5098819;27;45473;-79
2023/11/04 07:32:59;;;;;;;;;1.67;1.00;;;;;;;;5101041;27;45296;-76
2023/11/04 07:35:24;;;;;;;;;2.67;1.00;;;;;;;;5101277;27;45564;-78
2023/11/04 07:37:50;;;;;;;;;2.00;2.00;;;;;;;;5103332;27;45407;-84
2023/11/04 07:40:16;;;;;;;;;2.00;0.33;;;;;;;;5102414;27;45369;-80
2023/11/04 07:42:42;;;;;;;;;0.00;0.00;;;;;;;;5104483;27;45368;-79
2023/11/04 07:45:11;;;;;;;;;2.00;1.00;;;;;;;;5104390;27;45273;-78
2023/11/04 07:47:37;;;;;;;;;1.00;1.00;;;;;;;;5074723;27;46097;-79
2023/11/04 07:50:03;;;;;;;;;1.00;1.00;;;;;;;;5074523;28;45435;-81
2023/11/04 07:52:28;;;;;;;;;0.00;0.00;;;;;;;;5069523;28;45362;-80
2023/11/04 07:54:53;;;;;;;;;0.00;0.00;;;;;;;;5070299;28;45333;-80
2023/11/04 07:57:19;;;;;;;;;2.67;1.00;;;;;;;;5070453;28;45345;-81
2023/11/04 07:59:44;;;;;;;;;0.00;0.00;;;;;;;;5062061;28;45264;-78
2023/11/04 08:02:09;;;;;;;;;2.00;1.00;;;;;;;;5060021;28;45297;-78
2023/11/04 08:04:37;;;;;;;;;1.67;1.67;;;;;;;;5060266;28;45312;-78
2023/11/04 08:07:03;;;;;;;;;0.00;0.00;;;;;;;;5057474;27;46339;-81
2023/11/04 08:10:16;;;;;;;;;;;;;;;;;;;;;
2023/11/04 08:13:16;;;;;;;;;;;;;;;;;;;;;
2023/11/04 08:18:45;;;;;;;;;0.00;0.00;;;;;;;;5084323;28;45299;-83
2023/11/04 08:21:13;;;;;;;;;0.00;0.00;;;;;;;;5079483;28;45312;-83
2023/11/04 08:23:38;;;;;;;;;0.00;0.00;;;;;;;;5080256;28;45501;-82
2023/11/04 08:26:04;;;;;;;;;2.00;0.00;;;;;;;;5077539;28;45990;-82
2023/11/04 08:28:29;;;;;;;;;0.00;0.00;;;;;;;;5059922;28;47027;-83
2023/11/04 08:30:55;;;;;;;;;0.00;0.00;;;;;;;;5064968;28;45351;-82
2023/11/04 08:33:20;;;;;;;;;0.00;0.00;;;;;;;;5067400;28;45327;-80
2023/11/04 08:35:45;;;;;;;;;0.00;0.00;;;;;;;;5068679;28;45454;-84
2023/11/04 08:38:10;;;;;;;;;0.00;0.00;;;;;;;;5076046;28;46205;-82
2023/11/04 08:40:36;;;;;;;;;0.00;0.00;;;;;;;;5069581;28;45477;-85
2023/11/04 08:43:01;;;;;;;;;1.00;0.00;;;;;;;;5081824;28;45854;-79
2023/11/04 08:45:27;;;;;;;;;0.00;0.00;;;;;;;;5080075;28;45291;-83
2023/11/04 08:47:53;;;;;;;;;0.00;0.00;;;;;;;;5073087;28;45573;-85
2023/11/04 08:50:18;;;;;;;;;0.00;0.00;;;;;;;;5065216;28;46093;-82
2023/11/04 08:52:43;;;;;;;;;0.00;0.00;;;;;;;;5071321;28;45396;-83
2023/11/04 08:55:09;;;;;;;;;0.00;0.00;;;;;;;;5084749;28;45355;-82
2023/11/04 08:57:35;;;;;;;;;0.00;0.00;;;;;;;;5080037;28;47141;-86
2023/11/04 09:00:00;;;;;;;;;0.00;0.00;;;;;;;;5065865;28;45496;-87
2023/11/04 09:02:25;;;;;;;;;0.67;0.00;;;;;;;;5070110;28;45312;-86
2023/11/04 09:04:51;;;;;;;;;0.00;0.00;;;;;;;;5084041;28;45278;-84
2023/11/04 09:07:16;;;;;;;;;0.00;0.00;;;;;;;;5072335;28;47362;-84
2023/11/04 09:09:44;;;;;;;;;0.00;0.00;;;;;;;;5074564;28;45124;-87
2023/11/04 09:12:09;;;;;;;;;0.00;0.00;;;;;;;;5079217;28;45432;-84
2023/11/04 09:14:36;;;;;;;;;0.00;0.00;;;;;;;;5077041;28;45594;-82
2023/11/04 09:17:01;;;;;;;;;0.00;0.00;;;;;;;;5070211;28;45521;-83
2023/11/04 09:19:26;;;;;;;;;0.00;0.00;;;;;;;;5081451;28;45334;-81
2023/11/04 09:21:52;;;;;;;;;0.00;0.00;;;;;;;;5072419;28;45412;-83
2023/11/04 09:24:17;;;;;;;;;0.00;0.00;;;;;;;;5070468;28;47062;-85
2023/11/04 09:26:42;;;;;;;;;0.00;0.00;;;;;;;;5073779;28;46195;-80
2023/11/04 09:29:07;;;;;;;;;0.67;0.00;;;;;;;;5087885;27;45748;-82
2023/11/04 09:31:32;;;;;;;;;0.00;0.00;;;;;;;;5105799;27;45365;-82
2023/11/04 09:34:00;;;;;;;;;0.00;0.00;;;;;;;;5074684;27;45350;-82
2023/11/04 09:36:26;;;;;;;;;0.00;0.00;;;;;;;;5071280;28;46799;-79
2023/11/04 09:38:51;;;;;;;;;0.00;0.00;;;;;;;;5071437;28;45264;-81
2023/11/04 09:41:17;;;;;;;;;0.00;0.00;;;;;;;;5078211;28;45335;-83
2023/11/04 09:43:42;;;;;;;;;0.00;0.00;;;;;;;;5077595;28;45453;-83
2023/11/04 09:46:08;;;;;;;;;0.33;0.00;;;;;;;;5067649;28;47248;-81
2023/11/04 09:48:37;;;;;;;;;0.00;0.00;;;;;;;;5070489;28;45551;-81
2023/11/04 09:51:09;;;;;;;;;0.00;0.00;;;;;;;;5073724;28;45457;-80
2023/11/04 09:53:38;;;;;;;;;0.00;0.00;;;;;;;;5066404;28;45740;-80
2023/11/04 09:56:04;;;;;;;;;0.33;0.33;;;;;;;;5077611;28;46377;-83
2023/11/04 09:58:30;;;;;;;;;0.00;0.00;;;;;;;;5082700;28;45371;-83
2023/11/04 10:00:56;;;;;;;;;0.67;0.67;;;;;;;;5084723;28;45426;-83
2023/11/04 10:03:21;;;;;;;;;0.00;0.00;;;;;;;;5084627;27;45406;-86
2023/11/04 10:05:47;;;;;;;;;0.00;0.00;;;;;;;;5083718;28;46401;-83
2023/11/04 10:08:13;;;;;;;;;0.00;0.00;;;;;;;;5082496;27;45432;-84
2023/11/04 10:10:39;;;;;;;;;0.00;0.00;;;;;;;;5084592;28;45301;-87
2023/11/04 10:13:05;;;;;;;;;0.00;0.00;;;;;;;;5069686;28;46063;-81
2023/11/04 10:15:30;;;;;;;;;0.00;0.00;;;;;;;;5089197;28;47166;-83
2023/11/04 10:17:56;;;;;;;;;0.00;0.00;;;;;;;;5083481;28;45253;-84
2023/11/04 10:20:24;;;;;;;;;1.00;0.00;;;;;;;;5088101;28;45402;-82
2023/11/04 10:22:49;;;;;;;;;0.00;0.00;;;;;;;;5084346;28;45257;-85
2023/11/04 10:25:15;;;;;;;;;0.00;0.00;;;;;;;;5084764;27;46025;-84
2023/11/04 10:27:40;;;;;;;;;0.00;0.00;;;;;;;;5073785;28;45294;-81
2023/11/04 10:30:09;;;;;;;;;0.00;0.00;;;;;;;;5084009;27;45270;-85
2023/11/04 10:32:38;;;;;;;;;0.00;0.00;;;;;;;;5078785;28;45544;-84
2023/11/04 10:35:09;;;;;;;;;0.00;0.00;;;;;;;;5085311;28;46672;-82
2023/11/04 10:37:34;;;;;;;;;0.00;0.00;;;;;;;;5070758;28;45497;-81
2023/11/04 10:40:06;;;;;;;;;0.00;0.00;;;;;;;;5070486;28;45435;-82
2023/11/04 10:42:35;;;;;;;;;0.00;0.00;;;;;;;;5077405;28;45426;-82
2023/11/04 10:45:02;;;;;;;;;0.00;0.00;;;;;;;;5073793;28;45412;-81
2023/11/04 10:47:45;;;;;;;;;0.00;0.00;;;;;;;;5072741;28;45557;-82
2023/11/04 10:50:19;;;;;;;;;0.67;0.67;;;;;;;;5086374;28;45275;-81
2023/11/04 10:53:11;;;;;;;;;0.00;0.00;;;;;;;;5068671;28;45600;-82
2023/11/04 10:55:42;;;;;;;;;0.00;0.00;;;;;;;;5052188;28;45384;-83
2023/11/04 10:58:08;;;;;;;;;1.00;0.00;;;;;;;;5074235;28;44689;-81
2023/11/04 11:00:34;;;;;;;;;1.00;1.00;;;;;;;;5069338;28;45292;-80
2023/11/04 11:03:00;;;;;;;;;0.00;0.00;;;;;;;;5067719;28;45224;-82
2023/11/04 11:05:27;;;;;;;;;0.00;0.00;;;;;;;;5081199;28;46291;-82
2023/11/04 11:07:53;;;;;;;;;0.00;0.00;;;;;;;;5085446;28;45232;-83
2023/11/04 11:10:19;;;;;;;;;0.00;0.00;;;;;;;;5082881;28;45337;-81
2023/11/04 11:13:02;;;;;;;;;0.33;0.00;;;;;;;;5083438;28;45344;-80
2023/11/04 11:15:27;;;;;;;;;2.00;1.33;;;;;;;;5080075;28;47465;-82
2023/11/04 11:17:56;;;;;;;;;0.00;0.00;;;;;;;;5080628;28;45316;-82
2023/11/04 11:20:32;;;;;;;;;1.00;1.00;;;;;;;;5081909;28;45698;-84
2023/11/04 11:22:59;;;;;;;;;0.33;0.33;;;;;;;;5085335;28;45472;-86
2023/11/04 11:25:31;;;;;;;;;0.33;0.33;;;;;;;;5081025;28;48045;-80
2023/11/04 11:27:58;;;;;;;;;2.00;2.00;;;;;;;;5082404;28;45425;-81
2023/11/04 11:30:32;;;;;;;;;2.00;0.33;;;;;;;;5099215;27;45288;-85
2023/11/04 11:33:04;;;;;;;;;2.00;1.00;;;;;;;;5101144;27;45328;-86
2023/11/04 11:35:48;;;;;;;;;3.00;0.75;;;;;;;;5102069;27;47255;-84
2023/11/04 11:38:13;;;;;;;;;1.33;1.33;;;;;;;;5103680;27;45310;-83
2023/11/04 11:40:38;;;;;;;;;3.33;2.00;;;;;;;;5102875;27;45169;-85
2023/11/04 11:43:03;;;;;;;;;3.33;0.33;;;;;;;;5102339;27;45972;-83
2023/11/04 11:45:29;;;;;;;;;4.67;4.00;;;;;;;;5105167;27;45482;-85
2023/11/04 11:47:54;;;;;;;;;2.67;0.67;;;;;;;;5103912;27;45537;-85
2023/11/04 11:50:20;;;;;;;;;4.50;2.25;;;;;;;;5083063;27;45618;-87
2023/11/04 11:52:46;;;;;;;;;1.33;1.33;;;;;;;;5071040;28;46039;-85
2023/11/04 11:55:11;;;;;;;;;4.00;4.00;;;;;;;;5072696;28;45454;-86
2023/11/04 11:57:36;;;;;;;;;2.33;2.00;;;;;;;;5074791;28;45264;-84
2023/11/04 12:00:01;;;;;;;;;3.75;1.75;;;;;;;;5068811;28;45449;-86
2023/11/04 12:02:27;;;;;;;;;4.00;3.33;;;;;;;;5072708;28;46866;-86
2023/11/04 12:04:52;;;;;;;;;2.33;2.33;;;;;;;;5066277;28;46299;-88
2023/11/04 12:07:17;;;;;;;;;3.00;1.33;;;;;;;;5065970;28;46072;-83
2023/11/04 12:09:42;;;;;;;;;5.67;3.33;;;;;;;;5068018;28;45382;-81
2023/11/04 12:12:09;;;;;;;;;4.00;2.00;;;;;;;;5068733;28;45007;-79
2023/11/04 12:14:34;;;;;;;;;3.00;3.00;;;;;;;;5070615;28;45443;-79
2023/11/04 12:16:59;;;;;;;;;2.67;1.00;;;;;;;;5071025;28;45326;-81
2023/11/04 12:19:25;;;;;;;;;4.00;3.00;;;;;;;;5074836;28;45198;-83
2023/11/04 12:21:50;;;;;;;;;5.25;3.75;;;;;;;;5074355;28;45451;-83
2023/11/04 12:24:16;;;;;;;;;2.33;2.33;;;;;;;;5085942;28;45451;-82
2023/11/04 12:26:44;;;;;;;;;5.00;3.00;;;;;;;;5086402;27;45352;-83
2023/11/04 12:29:09;;;;;;;;;3.00;2.50;;;;;;;;5087294;27;45365;-84
2023/11/04 12:31:34;;;;;;;;;4.33;3.00;;;;;;;;5087157;28;45377;-82
2023/11/04 12:34:01;;;;;;;;;6.00;3.67;;;;;;;;5075503;28;45697;-84
2023/11/04 12:36:27;;;;;;;;;7.33;4.00;;;;;;;;5078922;28;45381;-80
2023/11/04 12:38:52;;;;;;;;;6.00;4.67;;;;;;;;5079960;28;45411;-83
2023/11/04 12:41:18;;;;;;;;;6.00;3.00;;;;;;;;5075472;28;45396;-80
2023/11/04 12:43:43;;;;;;;;;4.33;3.00;;;;;;;;5074039;28;45534;-83
2023/11/04 12:46:10;;;;;;;;;6.33;5.00;;;;;;;;5078203;28;45348;-80
2023/11/04 12:48:36;;;;;;;;;2.00;2.00;;;;;;;;5079331;28;45461;-79
2023/11/04 12:51:01;;;;;;;;;2.25;2.25;;;;;;;;5077190;28;45431;-81
2023/11/04 12:53:28;;;;;;;;;5.33;4.00;;;;;;;;5074484;28;45376;-80
2023/11/04 12:55:54;;;;;;;;;2.75;2.00;;;;;;;;5075566;28;45439;-80
2023/11/04 12:58:19;;;;;;;;;1.50;1.50;;;;;;;;5076297;28;45476;-81
2023/11/04 13:00:45;;;;;;;;;1.25;0.50;;;;;;;;5074066;28;45421;-82
2023/11/04 13:03:12;;;;;;;;;1.25;1.25;;;;;;;;5076038;28;46112;-79
2023/11/04 13:05:37;;;;;;;;;1.00;1.00;;;;;;;;5073392;28;45366;-79
2023/11/04 13:08:04;;;;;;;;;0.00;0.00;;;;;;;;5076390;28;45386;-79
2023/11/04 13:10:29;;;;;;;;;1.00;0.00;;;;;;;;5076895;28;45233;-80
2023/11/04 13:12:54;;;;;;;;;0.00;0.00;;;;;;;;5078605;28;46243;-80
2023/11/04 13:15:20;;;;;;;;;0.00;0.00;;;;;;;;5085275;28;45256;-80
2023/11/04 13:17:45;;;;;;;;;0.00;0.00;;;;;;;;5068090;28;45325;-79
2023/11/04 13:20:10;;;;;;;;;0.00;0.00;;;;;;;;5071581;28;45199;-80
2023/11/04 13:22:36;;;;;;;;;0.75;0.00;;;;;;;;5074693;28;45449;-79
2023/11/04 13:25:02;;;;;;;;;0.50;0.00;;;;;;;;5073789;28;45279;-79
2023/11/04 13:27:27;;;;;;;;;0.00;0.00;;;;;;;;5075096;28;45219;-79
2023/11/04 13:29:55;;;;;;;;;1.50;1.00;;;;;;;;5086078;27;45352;-79
2023/11/04 13:32:21;;;;;;;;;1.25;1.00;;;;;;;;5072386;28;45300;-77
2023/11/04 13:34:46;;;;;;;;;0.00;0.00;;;;;;;;5063826;28;45343;-80
2023/11/04 13:37:11;;;;;;;;;2.00;1.00;;;;;;;;5063332;28;45451;-81
2023/11/04 13:39:37;;;;;;;;;2.00;1.00;;;;;;;;5064054;28;45358;-82
2023/11/04 13:42:02;;;;;;;;;0.50;0.00;;;;;;;;5063655;28;45423;-79
2023/11/04 13:44:27;;;;;;;;;2.00;2.00;;;;;;;;5063353;28;45322;-81
2023/11/04 13:46:52;;;;;;;;;1.00;0.00;;;;;;;;5067029;28;45361;-82
2023/11/04 13:49:18;;;;;;;;;2.75;2.25;;;;;;;;5072182;28;45354;-81
2023/11/04 13:51:43;;;;;;;;;5.25;2.00;;;;;;;;5075132;28;45356;-81
2023/11/04 13:54:08;;;;;;;;;3.25;2.25;;;;;;;;5068137;28;45394;-80
2023/11/04 13:56:33;;;;;;;;;2.33;1.00;;;;;;;;5066531;28;45472;-79
2023/11/04 13:58:59;;;;;;;;;3.50;2.00;;;;;;;;5066455;28;45438;-81
2023/11/04 14:01:24;;;;;;;;;2.33;2.00;;;;;;;;5065395;28;45385;-81
2023/11/04 14:03:50;;;;;;;;;1.75;1.75;;;;;;;;5067990;28;45350;-81
2023/11/04 14:06:16;;;;;;;;;5.00;2.00;;;;;;;;5070577;28;45453;-80
2023/11/04 14:08:41;;;;;;;;;3.50;2.00;;;;;;;;5073341;28;45448;-82
2023/11/04 14:11:06;;;;;;;;;4.00;2.25;;;;;;;;5078970;28;45363;-82
2023/11/04 14:13:32;;;;;;;;;1.25;1.25;;;;;;;;5068598;28;45200;-81
2023/11/04 14:15:57;;;;;;;;;2.00;2.00;;;;;;;;5070093;28;45353;-79
2023/11/04 14:18:23;;;;;;;;;3.00;3.00;;;;;;;;5065504;28;45714;-83
2023/11/04 14:20:48;;;;;;;;;3.25;1.50;;;;;;;;5070165;28;45280;-81
2023/11/04 14:23:13;;;;;;;;;3.00;2.25;;;;;;;;5070327;28;45301;-81
2023/11/04 14:25:38;;;;;;;;;2.67;2.67;;;;;;;;5071493;28;45348;-81
2023/11/04 14:28:04;;;;;;;;;2.00;2.00;;;;;;;;5082924;28;45574;-79
2023/11/04 14:30:29;;;;;;;;;1.33;0.00;;;;;;;;5091579;27;45353;-82
2023/11/04 14:32:54;;;;;;;;;6.00;2.00;;;;;;;;5086629;28;45353;-83
2023/11/04 14:35:20;;;;;;;;;3.00;3.00;;;;;;;;5087363;28;45330;-80
2023/11/04 14:37:45;;;;;;;;;5.67;4.67;;;;;;;;5088144;28;45287;-82
2023/11/04 14:40:16;;;;;;;;;5.00;2.00;;;;;;;;5074995;28;46104;-82
2023/11/04 14:42:41;;;;;;;;;2.33;2.00;;;;;;;;5064548;28;45298;-83